Hlavní strana
METAR-TAF:

METAR-TAF

Letiště :

Mezinárodní letiště Kapské Město

Kapské Město, Jihoafrická republika

zeměpisná šířka: 33-59S, zeměpisná délka: 018-36E, výška: 42 m

Aktuální stav počasí

Zpráva byla vytvořena před 33 minutami, v 13:00 UTC
Jižní vítr 14 kt
Teplota 28°C
Vlhkost vzduchu 37%
Tlak 1017 hPa
Viditelnost 10 km a více
Žádná oblačnost pod 1500 m, nevyskytují se cumulonimby.

METAR: FACT 101300Z 18014KT CAVOK 28/12 Q1017 NOSIG

Čas: 15:33 (13:33 UTC)

Předpověď počasí

Zpráva byla vytvořena před 3 hodinami a 33 minutami, v 10:00 UTC
Předpověď platná od 10 v 12 UTC do 11 v 18 UTC
Jihojihozápadní vítr 10 kt
Viditelnost 10 km a více
Žádná oblačnost pod 1500 m, nevyskytují se cumulonimby.

TAF: FACT 101000Z 1012/1118 20010KT CAVOK TX28/1012Z TN15/1104Z

Stav a předpovědi počasí z více než 4 000 letišť (zprávy METAR a TAF).

Červené a žluté tečky na mapě představují dostupné meteorologické stanice.

Když kurzor umístíte na tečku, zobrazí se název stanice.

Pak kliknutím zobrazíte stav a předpověď počasí.

Chcete-li změnit mapu, kliknutím na zelené tlačítko se znaménkem +mapu přiblížíte, kliknutím na zelené tlačítko se znaménkem – mapu oddálíte a kliknutím na zelené šipky přejdete na sousední mapy.


METAR-TAF: